Time;durP1;ratioP1;P1;durP2;ratioP2;P2;SDS_P1;SDS_P2;PMS_P1;PMS_P2;Temp;Humidity;BMP_temperature;BMP_pressure;BME280_temperature;BME280_humidity;BME280_pressure;Samples;Min_cycle;Max_cycle;Signal;HPM_P1;HPM_P2
2022/04/19 00:00:18;;;;;;;17.50;10.70;;;;;;;9.38;73.85;101548.09;5054694;28;20563;-61
2022/04/19 00:02:44;;;;;;;15.52;10.38;;;;;;;9.40;72.63;101535.72;5054830;28;20036;-61
2022/04/19 00:05:10;;;;;;;16.63;11.15;;;;;;;9.41;72.48;101533.94;5055222;28;20024;-62
2022/04/19 00:07:36;;;;;;;16.83;10.85;;;;;;;9.43;72.03;101540.91;5054598;28;20078;-62
2022/04/19 00:10:02;;;;;;;16.00;10.48;;;;;;;9.45;71.14;101532.94;5040992;28;20043;-62
2022/04/19 00:12:28;;;;;;;17.27;11.30;;;;;;;9.45;71.02;101540.88;5057090;28;20041;-62
2022/04/19 00:14:54;;;;;;;16.20;10.43;;;;;;;9.41;71.09;101533.94;5050183;28;20047;-62
2022/04/19 00:17:19;;;;;;;19.55;11.30;;;;;;;9.37;71.34;101529.66;5054530;28;20669;-60
2022/04/19 00:19:45;;;;;;;15.40;10.73;;;;;;;9.32;72.20;101532.41;5058487;28;20166;-61
2022/04/19 00:22:10;;;;;;;19.10;11.05;;;;;;;9.27;71.38;101536.97;5054417;28;20103;-60
2022/04/19 00:24:36;;;;;;;19.45;11.23;;;;;;;9.22;69.75;101539.75;5054955;28;20020;-61
2022/04/19 00:27:01;;;;;;;18.45;11.75;;;;;;;9.23;70.16;101522.97;5055157;28;20138;-61
2022/04/19 00:29:27;;;;;;;18.42;11.93;;;;;;;9.24;70.50;101537.91;5053141;28;20048;-61
2022/04/19 00:31:52;;;;;;;16.27;10.88;;;;;;;9.21;70.98;101529.22;5053405;28;20067;-61
2022/04/19 00:34:17;;;;;;;16.67;11.38;;;;;;;9.13;71.96;101527.66;5039619;28;20062;-61
2022/04/19 00:36:43;;;;;;;17.67;10.65;;;;;;;9.13;72.11;101527.66;5054223;28;20032;-61
2022/04/19 00:39:08;;;;;;;18.48;11.57;;;;;;;9.08;72.56;101526.94;5053676;28;20053;-61
2022/04/19 00:41:33;;;;;;;17.80;11.32;;;;;;;9.05;72.70;101515.56;5054293;28;20024;-61
2022/04/19 00:43:59;;;;;;;16.10;11.25;;;;;;;9.01;73.23;101514.78;5054490;28;20040;-61
2022/04/19 00:46:24;;;;;;;16.10;11.07;;;;;;;8.97;73.51;101521.06;5049786;28;20071;-62
2022/04/19 00:48:52;;;;;;;17.45;11.43;;;;;;;8.94;74.54;101514.09;5052911;28;20064;-61
2022/04/19 00:51:19;;;;;;;19.08;11.70;;;;;;;8.88;75.35;101511.63;5054108;28;20028;-61
2022/04/19 00:53:45;;;;;;;19.90;12.15;;;;;;;8.86;76.00;101508.13;5052349;28;20119;-61
2022/04/19 00:56:11;;;;;;;19.33;12.40;;;;;;;8.80;76.77;101511.81;5050751;28;20043;-61
2022/04/19 00:58:37;;;;;;;20.45;11.32;;;;;;;8.77;76.82;101513.66;5068443;28;20033;-61
2022/04/19 01:01:03;;;;;;;18.38;11.55;;;;;;;8.78;76.58;101507.50;5056362;28;20476;-60
2022/04/19 01:03:28;;;;;;;18.48;11.27;;;;;;;8.80;76.94;101500.41;5056628;28;20055;-62
2022/04/19 01:05:55;;;;;;;20.30;12.20;;;;;;;8.75;76.90;101508.44;5053634;28;20140;-60
2022/04/19 01:08:22;;;;;;;18.13;11.45;;;;;;;8.76;76.64;101509.28;5058788;28;20028;-61
2022/04/19 01:10:48;;;;;;;17.63;11.82;;;;;;;8.74;76.65;101501.41;5053025;28;20032;-59
2022/04/19 01:13:17;;;;;;;18.92;12.15;;;;;;;8.68;77.32;101505.09;5057181;28;20033;-60
2022/04/19 01:15:49;;;;;;;20.73;12.45;;;;;;;8.64;78.11;101505.22;5053457;28;20046;-61
2022/04/19 01:18:23;;;;;;;18.52;12.13;;;;;;;8.59;79.07;101509.75;5056299;28;20085;-61
2022/04/19 01:20:49;;;;;;;19.23;12.63;;;;;;;8.58;79.16;101498.31;5052951;28;20040;-62
2022/04/19 01:23:15;;;;;;;16.70;11.73;;;;;;;8.56;79.47;101494.84;5051636;28;20576;-61
2022/04/19 01:25:41;;;;;;;18.85;12.13;;;;;;;8.54;80.44;101496.66;5052695;28;20032;-62
2022/04/19 01:28:06;;;;;;;18.40;12.23;;;;;;;8.51;80.34;101502.88;5050898;28;20407;-62
2022/04/19 01:30:35;;;;;;;21.23;13.68;;;;;;;8.46;81.06;101496.00;5052502;28;20174;-61
2022/04/19 01:33:02;;;;;;;20.52;12.90;;;;;;;8.45;81.09;101504.78;5053628;28;20028;-62
2022/04/19 01:35:27;;;;;;;17.02;11.90;;;;;;;8.41;82.01;101501.34;5051580;28;20037;-61
2022/04/19 01:37:53;;;;;;;18.60;12.60;;;;;;;8.37;82.87;101500.53;5058844;28;20090;-61
2022/04/19 01:40:18;;;;;;;22.13;13.18;;;;;;;8.36;83.20;101498.84;5051245;28;20029;-61
2022/04/19 01:42:45;;;;;;;20.67;13.05;;;;;;;8.30;83.89;101499.00;5052632;28;20094;-62
2022/04/19 01:45:18;;;;;;;19.80;12.70;;;;;;;8.28;84.17;101500.78;5053298;28;20044;-61
2022/04/19 01:47:44;;;;;;;19.85;12.38;;;;;;;8.25;84.69;101492.97;5052709;28;20024;-61
2022/04/19 01:50:11;;;;;;;20.73;12.68;;;;;;;8.24;84.78;101493.00;5055328;28;20024;-61
2022/04/19 01:52:41;;;;;;;19.60;12.32;;;;;;;8.26;84.79;101496.44;5059524;28;20098;-61
2022/04/19 01:55:09;;;;;;;22.02;12.98;;;;;;;8.18;85.19;101494.88;5053077;28;20090;-60
2022/04/19 01:57:35;;;;;;;20.27;13.55;;;;;;;8.14;85.41;101480.00;5052572;28;20035;-61
2022/04/19 02:00:05;;;;;;;24.33;13.32;;;;;;;8.12;86.13;101486.22;5051792;28;20060;-61
2022/04/19 02:02:30;;;;;;;22.58;13.88;;;;;;;8.10;86.19;101490.69;5038227;28;20613;-60
2022/04/19 02:04:55;;;;;;;20.30;13.40;;;;;;;8.09;86.33;101494.22;5059119;28;20487;-60
2022/04/19 02:07:21;;;;;;;22.23;13.70;;;;;;;8.01;87.57;101482.06;5037280;28;20114;-62
2022/04/19 02:09:47;;;;;;;20.77;13.40;;;;;;;8.00;86.66;101487.41;5056392;28;20036;-61
2022/04/19 02:12:12;;;;;;;23.55;14.25;;;;;;;7.97;86.66;101485.69;5057024;28;20055;-61
2022/04/19 02:14:41;;;;;;;21.92;14.02;;;;;;;7.94;86.92;101490.16;5056631;28;20487;-60
2022/04/19 02:17:07;;;;;;;20.23;13.40;;;;;;;7.92;87.63;101481.44;5056747;28;20029;-60
2022/04/19 02:19:33;;;;;;;25.15;14.30;;;;;;;7.89;87.44;101479.75;5065524;28;20089;-61
2022/04/19 02:21:58;;;;;;;21.23;13.82;;;;;;;7.86;87.67;101479.81;5057208;28;20056;-61
2022/04/19 02:24:23;;;;;;;19.63;13.57;;;;;;;7.81;87.96;101476.41;5055409;28;20995;-61
2022/04/19 02:26:49;;;;;;;20.38;13.70;;;;;;;7.79;87.64;101481.72;5056102;28;20119;-62
2022/04/19 02:29:16;;;;;;;22.48;13.88;;;;;;;7.78;87.49;101479.97;5054242;28;20250;-62
2022/04/19 02:31:41;;;;;;;21.90;14.30;;;;;;;7.70;88.43;101474.88;5056824;28;20038;-61
2022/04/19 02:34:07;;;;;;;21.92;14.00;;;;;;;7.68;88.75;101470.56;5056928;28;20384;-60
2022/04/19 02:36:32;;;;;;;21.33;13.82;;;;;;;7.68;88.13;101484.59;5056389;28;20036;-60
2022/04/19 02:38:59;;;;;;;22.02;14.52;;;;;;;7.65;88.80;101476.75;5054632;28;20151;-61
2022/04/19 02:41:26;;;;;;;23.25;14.23;;;;;;;7.63;89.29;101470.66;5056160;28;20028;-61
2022/04/19 02:43:51;;;;;;;21.25;13.93;;;;;;;7.63;89.11;101475.91;5056299;28;20842;-61
2022/04/19 02:46:18;;;;;;;23.60;14.68;;;;;;;7.61;89.17;101471.59;5039233;28;20111;-61
2022/04/19 02:48:43;;;;;;;21.90;14.77;;;;;;;7.57;90.46;101469.91;5056639;28;20696;-61
2022/04/19 02:51:09;;;;;;;24.23;14.85;;;;;;;7.53;90.54;101472.63;5041190;28;20056;-61
2022/04/19 02:53:34;;;;;;;20.60;13.90;;;;;;;7.56;90.92;101479.59;5056693;28;20028;-62
2022/04/19 02:55:59;;;;;;;22.85;15.98;;;;;;;7.53;90.89;101480.53;5056589;28;20043;-61
2022/04/19 02:58:25;;;;;;;23.58;14.85;;;;;;;7.54;90.54;101478.75;5056911;28;20159;-61
2022/04/19 03:00:51;;;;;;;22.20;14.88;;;;;;;7.52;91.59;101475.31;5056218;28;20037;-61
2022/04/19 03:03:16;;;;;;;23.15;15.02;;;;;;;7.54;91.48;101470.84;5065319;28;20045;-61
2022/04/19 03:05:42;;;;;;;23.08;15.13;;;;;;;7.52;91.61;101467.41;5051553;28;20056;-61
2022/04/19 03:08:09;;;;;;;23.00;15.10;;;;;;;7.53;91.14;101466.47;5051791;28;20040;-61
2022/04/19 03:10:34;;;;;;;22.73;15.40;;;;;;;7.50;91.72;101469.19;5051383;28;20025;-61
2022/04/19 03:13:00;;;;;;;25.30;15.75;;;;;;;7.49;92.71;101470.09;5054625;28;20086;-61
2022/04/19 03:15:27;;;;;;;23.83;15.18;;;;;;;7.50;92.74;101470.06;5055179;28;20033;-61
2022/04/19 03:17:52;;;;;;;27.02;16.30;;;;;;;7.48;92.19;101469.25;5055020;28;20086;-61
2022/04/19 03:20:18;;;;;;;25.92;16.45;;;;;;;7.50;92.33;101467.41;5054910;28;20021;-62
2022/04/19 03:28:11;;;;;;;26.27;15.75;;;;;;;7.47;91.52;101478.03;5050137;28;20046;-61
2022/04/19 03:30:37;;;;;;;23.55;15.32;;;;;;;7.45;91.74;101479.81;5053732;28;20028;-61
2022/04/19 03:33:02;;;;;;;26.60;16.67;;;;;;;7.41;92.01;101472.91;5058800;28;20082;-61
2022/04/19 03:35:28;;;;;;;26.67;16.70;;;;;;;7.38;92.65;101463.28;5055024;28;20441;-61
2022/04/19 03:37:53;;;;;;;26.67;16.52;;;;;;;7.36;92.69;101470.34;5055145;28;20472;-61
2022/04/19 03:40:18;;;;;;;23.33;15.90;;;;;;;7.36;92.70;101472.97;5054875;28;20123;-61
2022/04/19 03:42:44;;;;;;;24.80;15.75;;;;;;;7.37;92.64;101463.31;5055075;28;20040;-60
2022/04/19 03:45:10;;;;;;;25.25;16.00;;;;;;;7.32;93.02;101460.78;5053946;28;20040;-60
2022/04/19 03:47:36;;;;;;;24.58;16.38;;;;;;;7.28;92.96;101464.38;5058795;28;20122;-61
2022/04/19 03:50:02;;;;;;;25.67;15.88;;;;;;;7.25;92.82;101464.47;5055107;28;20033;-61
2022/04/19 03:52:27;;;;;;;25.95;16.15;;;;;;;7.22;93.76;101462.75;5053860;28;20086;-61
2022/04/19 03:54:53;;;;;;;26.52;17.27;;;;;;;7.21;93.64;101457.50;5055068;28;20071;-61
2022/04/19 03:57:19;;;;;;;26.75;16.52;;;;;;;7.17;94.68;101461.09;5070297;28;20060;-61
2022/04/19 03:59:44;;;;;;;25.08;16.50;;;;;;;7.15;94.99;101462.91;5054831;28;20025;-61
2022/04/19 04:02:10;;;;;;;29.67;17.60;;;;;;;7.14;95.50;101462.03;5055343;28;20517;-61
2022/04/19 04:04:37;;;;;;;27.65;16.85;;;;;;;7.09;95.94;101466.53;5054358;28;20040;-62
2022/04/19 04:07:06;;;;;;;25.08;16.50;;;;;;;7.07;96.24;101475.34;5061785;28;20163;-62
2022/04/19 04:09:35;;;;;;;26.08;16.85;;;;;;;7.03;97.27;101475.44;5054241;28;20037;-62
2022/04/19 04:12:05;;;;;;;25.73;15.93;;;;;;;7.01;97.75;101476.38;5054622;28;20440;-62
2022/04/19 04:14:31;;;;;;;27.70;17.48;;;;;;;7.03;97.44;101464.91;5057532;28;20020;-60
2022/04/19 04:16:56;;;;;;;26.55;17.02;;;;;;;7.02;97.62;101467.53;5055012;28;20487;-61
2022/04/19 04:19:22;;;;;;;26.30;16.85;;;;;;;6.99;97.90;101464.97;5054148;28;20059;-60
2022/04/19 04:21:48;;;;;;;27.23;17.20;;;;;;;6.98;97.43;101460.59;5053503;28;20040;-61
2022/04/19 04:24:13;;;;;;;25.95;17.00;;;;;;;6.99;96.99;101468.47;5053241;28;20511;-61
2022/04/19 04:26:38;;;;;;;26.63;16.98;;;;;;;6.96;97.80;101472.94;5053838;28;20094;-62
2022/04/19 04:29:04;;;;;;;27.58;17.40;;;;;;;6.92;98.25;101472.13;5058355;28;20037;-62
2022/04/19 04:31:29;;;;;;;28.42;17.88;;;;;;;6.90;99.41;101473.91;5056664;28;20093;-62
2022/04/19 04:33:55;;;;;;;28.95;17.77;;;;;;;6.89;100.00;101473.06;5054028;28;20029;-62
2022/04/19 04:36:20;;;;;;;28.05;17.77;;;;;;;6.92;100.00;101479.16;5054468;28;20029;-62
2022/04/19 04:38:46;;;;;;;27.88;17.00;;;;;;;6.92;99.96;101473.88;5054144;28;20047;-61
2022/04/19 04:41:11;;;;;;;27.10;17.00;;;;;;;6.95;99.58;101479.09;5053945;28;20403;-61
2022/04/19 04:43:40;;;;;;;30.10;18.05;;;;;;;6.94;99.74;101478.22;5054687;28;20033;-62
2022/04/19 04:51:34;;;;;;;27.42;18.10;;;;;;;6.98;99.53;101486.94;5053806;28;20158;-61
2022/04/19 04:53:59;;;;;;;28.38;17.88;;;;;;;7.00;99.36;101482.53;5053801;28;20547;-61
2022/04/19 04:56:25;;;;;;;28.38;18.00;;;;;;;7.04;99.93;101484.19;5039618;28;20021;-61
2022/04/19 04:58:50;;;;;;;30.83;18.50;;;;;;;7.09;99.67;101479.69;5053294;28;20530;-61
2022/04/19 05:01:16;;;;;;;25.77;16.98;;;;;;;7.14;99.59;101485.75;5057285;28;20024;-62
2022/04/19 05:03:41;;;;;;;27.92;18.17;;;;;;;7.18;99.31;101478.66;5053331;28;20419;-61
2022/04/19 05:06:07;;;;;;;33.30;18.52;;;;;;;7.19;99.56;101489.16;5054447;28;20051;-62
2022/04/19 05:08:32;;;;;;;27.63;17.95;;;;;;;7.25;99.62;101484.66;5053555;28;20035;-62
2022/04/19 05:10:57;;;;;;;29.42;19.23;;;;;;;7.28;99.54;101482.81;5054248;28;20495;-62
2022/04/19 05:13:23;;;;;;;31.05;19.25;;;;;;;7.33;99.83;101491.50;5051904;28;20544;-62
2022/04/19 05:15:49;;;;;;;29.42;19.20;;;;;;;7.37;99.54;101490.53;5053448;28;20036;-62
2022/04/19 05:18:17;;;;;;;31.27;19.20;;;;;;;7.40;99.61;101489.59;5053613;28;20021;-62
2022/04/19 05:20:43;;;;;;;33.33;19.05;;;;;;;7.45;100.00;101489.50;5052818;28;20041;-63
2022/04/19 05:23:09;;;;;;;32.17;19.70;;;;;;;7.52;99.59;101485.84;5052700;28;20107;-62
2022/04/19 05:25:34;;;;;;;27.80;18.50;;;;;;;7.57;99.87;101485.72;5053188;28;20119;-62
2022/04/19 05:27:59;;;;;;;32.85;19.30;;;;;;;7.57;100.00;101491.91;5053186;28;20037;-62
2022/04/19 05:30:25;;;;;;;28.80;18.92;;;;;;;7.62;100.00;101486.50;5067670;28;20056;-62
2022/04/19 05:32:50;;;;;;;29.88;19.08;;;;;;;7.64;100.00;101492.63;5052717;28;20044;-61
2022/04/19 05:35:16;;;;;;;29.13;19.55;;;;;;;7.65;100.00;101486.44;5052758;28;20223;-61
2022/04/19 05:37:41;;;;;;;34.47;19.55;;;;;;;7.71;100.00;101486.28;5052431;28;20406;-61
2022/04/19 05:40:07;;;;;;;28.58;19.13;;;;;;;7.79;100.00;101491.41;5052113;28;20416;-61
2022/04/19 05:42:33;;;;;;;29.25;18.63;;;;;;;7.85;100.00;101494.78;5052421;28;20067;-62
2022/04/19 05:44:58;;;;;;;31.42;18.60;;;;;;;7.97;100.00;101495.41;5056423;28;20131;-62
2022/04/19 05:47:23;;;;;;;31.02;19.20;;;;;;;8.01;100.00;101492.63;5068535;28;20115;-61
2022/04/19 05:49:49;;;;;;;28.35;19.08;;;;;;;8.10;100.00;101501.25;5021930;28;20059;-61
2022/04/19 05:52:14;;;;;;;31.23;18.27;;;;;;;8.17;99.41;101502.81;5052262;28;20032;-62
2022/04/19 05:54:40;;;;;;;28.55;18.58;;;;;;;8.24;99.16;101503.56;5052976;28;20036;-62
2022/04/19 05:57:05;;;;;;;28.80;18.67;;;;;;;8.29;99.10;101499.03;5052974;28;20035;-62
2022/04/19 05:59:31;;;;;;;31.40;18.77;;;;;;;8.38;99.34;101506.72;5052595;28;20033;-62
2022/04/19 06:04:53;;;;;;;29.60;19.20;;;;;;;8.63;98.38;101512.28;5052478;28;20075;-62
2022/04/19 06:07:21;;;;;;;28.35;17.75;;;;;;;8.75;98.09;101510.22;5052680;28;20103;-62
2022/04/19 06:09:46;;;;;;;29.10;18.60;;;;;;;8.84;97.29;101505.53;5051482;28;20059;-62
2022/04/19 06:12:12;;;;;;;23.90;16.73;;;;;;;8.95;97.10;101507.03;5054363;28;20029;-61
2022/04/19 06:14:38;;;;;;;27.75;17.67;;;;;;;9.08;97.02;101511.06;5060950;28;20472;-61
2022/04/19 06:17:04;;;;;;;27.52;18.48;;;;;;;9.22;97.12;101515.97;5058988;28;20036;-61
2022/04/19 06:19:30;;;;;;;28.60;16.88;;;;;;;9.33;96.77;101515.66;5070005;28;20408;-61
2022/04/19 06:21:56;;;;;;;25.52;16.85;;;;;;;9.47;96.28;101509.97;5071583;28;20325;-60
2022/04/19 06:24:22;;;;;;;23.67;16.30;;;;;;;9.59;94.64;101503.44;5071915;28;20085;-60
2022/04/19 06:26:48;;;;;;;21.30;15.23;;;;;;;9.75;93.99;101512.66;5067673;28;20032;-61
2022/04/19 06:29:14;;;;;;;23.08;15.75;;;;;;;9.88;92.84;101518.41;5256701;22;20130;-61
2022/04/19 06:31:40;;;;;;;26.23;14.68;;;;;;;10.02;91.16;101512.69;5092251;28;20149;-61
2022/04/19 06:34:08;;;;;;;21.00;13.82;;;;;;;10.12;88.78;101508.84;5107706;28;20451;-61
2022/04/19 06:36:34;;;;;;;25.95;15.07;;;;;;;10.26;86.82;101511.03;5087065;28;20453;-61
2022/04/19 06:38:59;;;;;;;19.90;12.98;;;;;;;10.39;84.75;101511.53;5074006;28;20051;-62
2022/04/19 06:41:25;;;;;;;21.15;12.65;;;;;;;10.53;83.60;101519.03;5074083;28;20376;-62
2022/04/19 06:43:50;;;;;;;20.20;12.90;;;;;;;10.64;81.97;101516.88;5091344;28;20062;-61
2022/04/19 06:46:17;;;;;;;18.75;12.48;;;;;;;10.76;81.42;101520.03;5091505;28;20076;-61
2022/04/19 06:48:42;;;;;;;19.70;12.82;;;;;;;10.79;79.98;101531.38;5091740;28;20043;-61
2022/04/19 06:51:09;;;;;;;21.17;12.52;;;;;;;10.86;79.75;101525.84;5092862;28;20479;-62
2022/04/19 06:53:37;;;;;;;21.45;12.90;;;;;;;10.95;80.17;101533.50;5092556;28;20066;-60
2022/04/19 06:56:04;;;;;;;19.55;13.35;;;;;;;11.05;79.71;101529.59;5091648;28;20160;-61
2022/04/19 06:58:30;;;;;;;17.70;12.95;;;;;;;11.20;78.90;101527.31;5092982;28;20027;-61
2022/04/19 07:00:56;;;;;;;20.50;13.02;;;;;;;11.35;77.22;101531.19;5091634;28;20032;-62
2022/04/19 07:03:24;;;;;;;18.90;12.68;;;;;;;11.44;77.27;101541.44;5073700;28;20596;-62
2022/04/19 07:05:50;;;;;;;21.15;13.40;;;;;;;11.57;77.46;101534.78;5111859;28;20024;-62
2022/04/19 07:08:15;;;;;;;26.50;12.95;;;;;;;11.67;76.54;101542.38;5093793;28;20031;-62
2022/04/19 07:10:41;;;;;;;17.00;12.48;;;;;;;11.85;74.42;101536.34;5086645;28;20110;-61
2022/04/19 07:13:07;;;;;;;20.65;13.32;;;;;;;12.09;75.84;101544.31;5091552;28;20032;-61
2022/04/19 07:15:32;;;;;;;18.02;12.02;;;;;;;12.33;73.28;101544.22;5087979;28;20113;-61
2022/04/19 07:17:57;;;;;;;17.45;12.52;;;;;;;12.54;72.83;101542.50;5089281;28;20031;-61
2022/04/19 07:28:35;;;;;;;22.17;12.68;;;;;;;13.37;69.33;101544.22;5091314;28;20116;-62
2022/04/19 07:31:01;;;;;;;18.65;12.20;;;;;;;13.54;67.62;101543.47;5073455;28;20035;-61
2022/04/19 07:33:27;;;;;;;17.65;11.45;;;;;;;13.79;67.18;101539.66;5073972;28;20036;-61
2022/04/19 07:35:53;;;;;;;23.85;11.70;;;;;;;13.94;67.52;101543.41;5064836;28;20479;-61
2022/04/19 07:38:18;;;;;;;20.15;10.98;;;;;;;14.08;66.83;101545.41;5053373;28;20028;-61
2022/04/19 07:40:45;;;;;;;17.83;12.43;;;;;;;14.27;66.47;101545.34;5090089;28;20028;-61
2022/04/19 07:43:10;;;;;;;17.92;11.30;;;;;;;14.47;63.58;101541.69;5103505;28;20161;-62
2022/04/19 07:45:35;;;;;;;19.70;11.00;;;;;;;14.62;62.71;101540.06;5073091;28;20111;-61
2022/04/19 07:48:01;;;;;;;16.92;10.52;;;;;;;14.78;61.94;101534.84;5073358;28;20154;-62
2022/04/19 07:50:26;;;;;;;16.60;10.35;;;;;;;14.91;61.26;101538.59;5073393;28;20199;-61
2022/04/19 07:52:52;;;;;;;16.73;10.05;;;;;;;14.97;57.09;101533.91;5090925;28;20028;-61
2022/04/19 07:55:17;;;;;;;17.75;9.65;;;;;;;15.05;56.45;101532.56;5091108;28;20024;-61
2022/04/19 07:57:42;;;;;;;14.32;9.60;;;;;;;15.16;54.39;101531.13;5073391;28;20541;-61
2022/04/19 08:00:08;;;;;;;12.60;9.00;;;;;;;15.18;50.95;101534.56;5093573;28;20487;-61
2022/04/19 08:02:34;;;;;;;13.23;8.70;;;;;;;15.25;49.11;101541.28;5094620;28;20024;-62
2022/04/19 08:04:59;;;;;;;13.70;8.77;;;;;;;15.30;48.80;101541.91;5068966;28;20036;-62
2022/04/19 08:07:24;;;;;;;14.35;8.82;;;;;;;15.43;48.24;101539.44;5067115;28;20035;-62
2022/04/19 08:09:50;;;;;;;14.70;8.50;;;;;;;15.49;47.21;101541.78;5076009;28;20123;-62
2022/04/19 08:12:15;;;;;;;13.75;8.60;;;;;;;15.53;48.05;101535.31;5076463;28;20028;-62
2022/04/19 08:14:43;;;;;;;15.43;8.57;;;;;;;15.64;48.75;101541.88;5090973;28;20036;-62
2022/04/19 08:17:09;;;;;;;13.75;6.93;;;;;;;15.79;47.67;101545.53;5094311;28;20056;-62
2022/04/19 08:19:34;;;;;;;15.77;7.65;;;;;;;15.93;45.87;101542.13;5088482;28;20428;-62
2022/04/19 08:22:00;;;;;;;13.10;7.97;;;;;;;16.07;47.01;101542.19;5080060;28;20495;-62
2022/04/19 08:24:25;;;;;;;13.43;6.75;;;;;;;16.18;44.79;101538.91;5093288;28;20028;-62
2022/04/19 08:26:51;;;;;;;12.15;6.25;;;;;;;16.33;45.06;101548.72;5076557;28;20039;-62
2022/04/19 08:29:16;;;;;;;10.07;5.68;;;;;;;16.29;43.36;101547.19;5072797;28;20055;-62
2022/04/19 08:31:41;;;;;;;9.65;5.55;;;;;;;16.31;43.57;101544.41;5072632;28;20066;-62
2022/04/19 08:34:07;;;;;;;10.48;5.03;;;;;;;16.30;44.40;101545.34;5077328;28;20479;-62
2022/04/19 08:36:34;;;;;;;9.35;5.38;;;;;;;16.07;43.16;101544.00;5056475;28;20455;-62
2022/04/19 08:39:00;;;;;;;8.52;4.78;;;;;;;16.15;43.90;101542.63;5058721;28;20033;-62
2022/04/19 08:41:25;;;;;;;9.50;5.32;;;;;;;16.18;42.58;101545.09;5072713;28;20029;-62
2022/04/19 08:43:52;;;;;;;8.48;4.85;;;;;;;16.28;43.80;101537.44;5073253;28;20269;-62
2022/04/19 08:46:18;;;;;;;9.07;5.00;;;;;;;16.45;43.73;101546.28;5073740;28;20032;-62
2022/04/19 08:48:44;;;;;;;10.27;4.97;;;;;;;16.53;43.28;101536.88;5078109;28;20028;-62
2022/04/19 08:51:11;;;;;;;10.13;5.30;;;;;;;16.68;41.77;101547.59;5094230;28;20028;-62
2022/04/19 08:59:10;;;;;;;8.75;5.63;;;;;;;16.69;43.53;101538.63;5033064;28;20124;-62
2022/04/19 09:01:35;;;;;;;9.35;5.22;;;;;;;16.85;42.37;101544.78;5069712;28;20111;-62
2022/04/19 09:04:04;;;;;;;9.75;5.85;;;;;;;16.97;42.44;101545.00;5047483;28;20040;-62
2022/04/19 09:06:48;;;;;;;10.88;5.93;;;;;;;17.13;42.70;101542.28;5069759;28;20028;-62
2022/04/19 09:09:14;;;;;;;9.80;5.53;;;;;;;17.30;42.31;101536.75;5065676;28;20025;-62
2022/04/19 09:11:39;;;;;;;9.32;5.70;;;;;;;17.59;41.24;101535.88;5056380;28;20226;-62
2022/04/19 09:14:06;;;;;;;10.82;6.22;;;;;;;17.69;42.53;101532.50;5073095;28;20082;-62
2022/04/19 09:16:32;;;;;;;9.70;5.80;;;;;;;18.15;39.77;101527.81;5073299;28;20028;-62
2022/04/19 09:18:57;;;;;;;9.88;5.70;;;;;;;18.86;38.71;101535.59;5055465;28;20032;-62
2022/04/19 09:21:40;;;;;;;12.52;6.22;;;;;;;19.94;35.75;101533.41;5079973;28;20028;-62
2022/04/19 09:24:19;;;;;;;11.07;6.03;;;;;;;21.16;34.03;101526.00;5091840;28;20081;-62
2022/04/19 09:26:46;;;;;;;11.38;5.63;;;;;;;21.96;31.25;101529.50;5093324;28;20115;-62
2022/04/19 09:29:18;;;;;;;11.68;5.80;;;;;;;22.63;30.86;101527.59;5063009;28;20106;-62
2022/04/19 09:31:44;;;;;;;10.98;5.60;;;;;;;23.24;29.79;101522.28;5077852;28;20040;-62
2022/04/19 09:34:11;;;;;;;10.20;5.70;;;;;;;24.13;28.52;101526.13;5081244;28;20036;-62
2022/04/19 09:36:37;;;;;;;9.10;5.20;;;;;;;24.04;27.37;101525.13;5071441;28;20074;-61
2022/04/19 09:39:25;;;;;;;8.07;5.03;;;;;;;23.82;26.80;101515.34;5072801;28;20031;-62
2022/04/19 09:42:01;;;;;;;7.72;4.78;;;;;;;23.85;27.04;101519.63;5078356;28;20059;-62
2022/04/19 09:44:26;;;;;;;8.18;4.88;;;;;;;23.89;27.90;101521.06;5091585;28;20081;-62
2022/04/19 09:47:22;;;;;;;7.82;4.90;;;;;;;24.29;26.92;101517.44;5091273;28;20036;-62
2022/04/19 09:49:51;;;;;;;9.13;5.03;;;;;;;24.07;26.14;101517.69;5072609;28;20044;-62
2022/04/19 09:52:22;;;;;;;8.15;5.07;;;;;;;24.35;24.85;101516.03;5084725;28;20050;-61
2022/04/19 09:55:01;;;;;;;10.65;5.43;;;;;;;24.08;26.88;101514.88;5056507;28;20028;-61
2022/04/19 09:57:31;;;;;;;8.52;5.32;;;;;;;24.29;26.52;101517.44;5055431;28;20036;-60
2022/04/19 09:59:59;;;;;;;10.32;5.75;;;;;;;23.98;25.76;101514.00;5070262;28;20031;-61
2022/04/19 10:08:13;;;;;;;8.80;5.80;;;;;;;23.91;25.19;101510.16;5066080;28;20051;-62
2022/04/19 10:10:40;;;;;;;9.95;5.50;;;;;;;24.35;24.89;101514.16;5064640;28;20075;-61
2022/04/19 10:13:06;;;;;;;9.35;5.63;;;;;;;24.60;26.45;101516.41;5056707;28;20185;-61
2022/04/19 10:15:36;;;;;;;9.02;5.90;;;;;;;24.89;25.32;101516.41;5068617;28;20111;-61
2022/04/19 10:18:06;;;;;;;8.95;5.63;;;;;;;25.15;22.70;101508.44;5072085;28;20029;-61
2022/04/19 10:20:42;;;;;;;9.38;6.18;;;;;;;25.69;21.78;101507.81;5071204;28;20024;-61
2022/04/19 10:23:09;;;;;;;10.18;5.68;;;;;;;26.04;22.52;101503.44;5081932;28;20497;-61
2022/04/19 10:25:46;;;;;;;9.75;6.07;;;;;;;25.59;22.25;101501.59;5091982;28;20027;-61
2022/04/19 10:28:29;;;;;;;10.25;5.78;;;;;;;25.65;22.82;101506.41;5090723;28;20036;-62
2022/04/19 10:30:56;;;;;;;10.57;5.90;;;;;;;26.01;22.80;101499.16;5092166;28;20071;-62
2022/04/19 10:33:54;;;;;;;11.07;6.20;;;;;;;26.27;20.43;101509.28;5079473;28;20029;-62
2022/04/19 10:36:34;;;;;;;10.48;6.07;;;;;;;26.20;20.33;101502.75;5066347;28;20071;-61
2022/04/19 10:39:12;;;;;;;9.93;5.82;;;;;;;26.28;22.10;101500.13;5072039;28;20472;-61
2022/04/19 10:42:05;;;;;;;10.40;5.65;;;;;;;26.60;22.38;101512.28;5071167;28;20039;-61
2022/04/19 10:44:34;;;;;;;8.85;6.22;;;;;;;26.54;22.00;101504.75;5073125;28;20044;-61
2022/04/19 10:47:14;;;;;;;11.43;6.93;;;;;;;26.40;21.19;101508.03;5070539;28;20021;-61
2022/04/19 10:49:50;;;;;;;9.40;6.13;;;;;;;26.39;21.06;101509.88;5059943;28;20032;-62
2022/04/19 10:52:40;;;;;;;10.30;6.65;;;;;;;26.38;21.58;101507.34;5064234;28;20020;-62
2022/04/19 10:55:07;;;;;;;11.55;6.88;;;;;;;26.06;22.23;101506.88;5057220;28;20082;-62
2022/04/19 11:00:31;;;;;;;9.38;6.53;;;;;;;26.07;21.52;101492.28;5059303;28;20170;-61
2022/04/19 11:03:15;;;;;;;10.43;6.50;;;;;;;26.02;22.75;101491.88;5056048;28;20040;-60
2022/04/19 11:05:42;;;;;;;13.73;7.32;;;;;;;26.27;21.01;101486.72;5059750;28;20040;-61
2022/04/19 11:08:26;;;;;;;10.10;6.72;;;;;;;26.40;21.87;101489.03;5061048;28;20024;-61
2022/04/19 11:10:58;;;;;;;10.63;6.88;;;;;;;26.31;21.70;101498.97;5059044;28;20033;-63
2022/04/19 11:13:27;;;;;;;10.10;6.85;;;;;;;26.69;21.82;101498.75;5063562;28;20032;-61
2022/04/19 11:16:08;;;;;;;10.90;6.60;;;;;;;26.35;22.82;101488.66;5063655;28;20075;-62
2022/04/19 11:18:55;;;;;;;10.48;6.60;;;;;;;26.82;22.26;101491.91;5057641;28;20112;-60
2022/04/19 11:21:48;;;;;;;10.07;6.93;;;;;;;26.79;21.31;101500.38;5056749;28;20507;-60
2022/04/19 11:24:33;;;;;;;11.35;6.60;;;;;;;26.50;21.79;101497.94;5063149;28;20483;-61
2022/04/19 11:26:58;;;;;;;9.98;6.93;;;;;;;26.57;21.30;101496.28;5074673;28;20043;-61
2022/04/19 11:29:24;;;;;;;9.70;6.40;;;;;;;26.40;21.71;101494.47;5100665;28;20043;-62
2022/04/19 11:31:49;;;;;;;11.40;6.85;;;;;;;25.79;22.63;101491.47;5094128;28;20075;-61
2022/04/19 11:34:16;;;;;;;11.93;7.00;;;;;;;25.97;24.00;101484.22;5115737;28;20028;-61
2022/04/19 11:36:43;;;;;;;10.52;7.10;;;;;;;25.91;22.41;101487.53;5113436;28;20024;-61
2022/04/19 11:46:43;;;;;;;11.82;6.60;;;;;;;25.90;22.19;101483.13;5108666;28;20103;-61
2022/04/19 11:47:48;;;;;;;12.00;6.72;;;;;;;24.74;23.08;101482.66;5086259;28;20090;-62
2022/04/19 11:50:31;;;;;;;11.52;6.30;;;;;;;25.64;21.31;101477.56;5087667;28;20491;-62
2022/04/19 11:53:00;;;;;;;11.57;6.45;;;;;;;25.70;21.65;101478.84;5059574;28;20031;-61
2022/04/19 11:55:27;;;;;;;9.57;5.95;;;;;;;25.97;21.64;101477.91;5054929;28;20107;-60
2022/04/19 11:58:09;;;;;;;9.98;6.45;;;;;;;26.09;20.67;101470.41;5079084;28;20263;-61
2022/04/19 12:00:35;;;;;;;11.15;6.30;;;;;;;24.97;22.62;101475.03;5065515;28;20142;-61